sensor_id;sensor_type;location;lat;lon;timestamp;P1;durP1;ratioP1;P2;durP2;ratioP2
13879;SDS011;7010;48.200;16.332;2022-08-01T00:01:30;2.95;;;2.75;;
13879;SDS011;7010;48.200;16.332;2022-08-01T00:03:58;3.05;;;2.78;;
13879;SDS011;7010;48.200;16.332;2022-08-01T00:06:27;3.05;;;2.78;;
13879;SDS011;7010;48.200;16.332;2022-08-01T00:08:55;2.50;;;2.33;;
13879;SDS011;7010;48.200;16.332;2022-08-01T00:11:25;3.30;;;3.00;;
13879;SDS011;7010;48.200;16.332;2022-08-01T00:13:53;2.67;;;2.47;;
13879;SDS011;7010;48.200;16.332;2022-08-01T00:16:21;3.22;;;2.95;;
13879;SDS011;7010;48.200;16.332;2022-08-01T00:18:50;2.75;;;2.55;;
13879;SDS011;7010;48.200;16.332;2022-08-01T00:21:18;3.20;;;3.00;;
13879;SDS011;7010;48.200;16.332;2022-08-01T00:23:47;3.00;;;2.80;;
13879;SDS011;7010;48.200;16.332;2022-08-01T00:26:15;3.78;;;2.97;;
13879;SDS011;7010;48.200;16.332;2022-08-01T00:28:45;2.65;;;2.45;;
13879;SDS011;7010;48.200;16.332;2022-08-01T00:31:13;2.85;;;2.63;;
13879;SDS011;7010;48.200;16.332;2022-08-01T00:33:42;2.20;;;2.10;;
13879;SDS011;7010;48.200;16.332;2022-08-01T00:36:10;3.97;;;3.15;;
13879;SDS011;7010;48.200;16.332;2022-08-01T00:38:38;3.22;;;2.72;;
13879;SDS011;7010;48.200;16.332;2022-08-01T00:41:06;3.10;;;2.90;;
13879;SDS011;7010;48.200;16.332;2022-08-01T00:43:35;3.17;;;2.88;;
13879;SDS011;7010;48.200;16.332;2022-08-01T00:46:04;2.63;;;2.42;;
13879;SDS011;7010;48.200;16.332;2022-08-01T00:48:33;2.47;;;2.28;;
13879;SDS011;7010;48.200;16.332;2022-08-01T00:51:01;3.33;;;2.58;;
13879;SDS011;7010;48.200;16.332;2022-08-01T00:53:30;5.13;;;2.63;;
13879;SDS011;7010;48.200;16.332;2022-08-01T00:56:17;2.67;;;2.45;;
13879;SDS011;7010;48.200;16.332;2022-08-01T00:58:46;2.75;;;2.55;;
13879;SDS011;7010;48.200;16.332;2022-08-01T01:01:17;2.40;;;2.25;;
13879;SDS011;7010;48.200;16.332;2022-08-01T01:03:47;6.07;;;2.35;;
13879;SDS011;7010;48.200;16.332;2022-08-01T01:06:26;2.40;;;2.20;;
13879;SDS011;7010;48.200;16.332;2022-08-01T01:09:00;3.08;;;2.88;;
13879;SDS011;7010;48.200;16.332;2022-08-01T01:11:41;2.83;;;2.60;;
13879;SDS011;7010;48.200;16.332;2022-08-01T01:14:17;2.67;;;2.28;;
13879;SDS011;7010;48.200;16.332;2022-08-01T01:16:56;3.42;;;2.58;;
13879;SDS011;7010;48.200;16.332;2022-08-01T01:19:28;2.60;;;2.42;;
13879;SDS011;7010;48.200;16.332;2022-08-01T01:22:08;3.63;;;2.83;;
13879;SDS011;7010;48.200;16.332;2022-08-01T01:24:48;7.93;;;2.92;;
13879;SDS011;7010;48.200;16.332;2022-08-01T01:27:33;2.63;;;2.42;;
13879;SDS011;7010;48.200;16.332;2022-08-01T01:30:11;3.05;;;2.85;;
13879;SDS011;7010;48.200;16.332;2022-08-01T01:32:41;2.70;;;2.50;;
13879;SDS011;7010;48.200;16.332;2022-08-01T01:35:14;3.00;;;2.47;;
13879;SDS011;7010;48.200;16.332;2022-08-01T01:37:46;2.60;;;2.40;;
13879;SDS011;7010;48.200;16.332;2022-08-01T01:40:17;4.90;;;2.47;;
13879;SDS011;7010;48.200;16.332;2022-08-01T01:42:46;2.90;;;2.70;;
13879;SDS011;7010;48.200;16.332;2022-08-01T01:45:18;2.85;;;2.65;;
13879;SDS011;7010;48.200;16.332;2022-08-01T01:47:47;2.95;;;2.38;;
13879;SDS011;7010;48.200;16.332;2022-08-01T01:50:16;2.60;;;2.42;;
13879;SDS011;7010;48.200;16.332;2022-08-01T01:52:47;2.47;;;2.33;;
13879;SDS011;7010;48.200;16.332;2022-08-01T01:55:16;3.33;;;3.03;;
13879;SDS011;7010;48.200;16.332;2022-08-01T01:57:48;2.63;;;2.42;;
13879;SDS011;7010;48.200;16.332;2022-08-01T02:00:21;3.60;;;2.90;;
13879;SDS011;7010;48.200;16.332;2022-08-01T02:02:50;3.55;;;3.05;;
13879;SDS011;7010;48.200;16.332;2022-08-01T02:05:20;3.33;;;3.03;;
13879;SDS011;7010;48.200;16.332;2022-08-01T02:07:49;2.45;;;2.25;;
13879;SDS011;7010;48.200;16.332;2022-08-01T02:10:25;2.35;;;2.15;;
13879;SDS011;7010;48.200;16.332;2022-08-01T02:12:54;2.95;;;2.60;;
13879;SDS011;7010;48.200;16.332;2022-08-01T02:15:26;2.40;;;2.17;;
13879;SDS011;7010;48.200;16.332;2022-08-01T02:17:57;9.68;;;2.50;;
13879;SDS011;7010;48.200;16.332;2022-08-01T02:20:27;2.50;;;2.40;;
13879;SDS011;7010;48.200;16.332;2022-08-01T02:23:00;2.80;;;2.60;;
13879;SDS011;7010;48.200;16.332;2022-08-01T02:25:36;3.25;;;2.88;;
13879;SDS011;7010;48.200;16.332;2022-08-01T02:28:28;2.30;;;2.13;;
13879;SDS011;7010;48.200;16.332;2022-08-01T02:31:02;2.83;;;2.53;;
13879;SDS011;7010;48.200;16.332;2022-08-01T02:33:35;3.10;;;2.83;;
13879;SDS011;7010;48.200;16.332;2022-08-01T02:36:06;3.63;;;2.60;;
13879;SDS011;7010;48.200;16.332;2022-08-01T02:38:55;2.40;;;2.25;;
13879;SDS011;7010;48.200;16.332;2022-08-01T02:41:26;2.60;;;2.50;;
13879;SDS011;7010;48.200;16.332;2022-08-01T02:43:56;3.45;;;2.67;;
13879;SDS011;7010;48.200;16.332;2022-08-01T02:46:29;3.45;;;2.25;;
13879;SDS011;7010;48.200;16.332;2022-08-01T02:49:03;3.20;;;2.67;;
13879;SDS011;7010;48.200;16.332;2022-08-01T02:51:34;2.70;;;2.10;;
13879;SDS011;7010;48.200;16.332;2022-08-01T02:54:03;2.75;;;1.98;;
13879;SDS011;7010;48.200;16.332;2022-08-01T02:56:34;2.85;;;2.58;;
13879;SDS011;7010;48.200;16.332;2022-08-01T02:59:04;2.38;;;2.17;;
13879;SDS011;7010;48.200;16.332;2022-08-01T03:01:35;2.67;;;2.47;;
13879;SDS011;7010;48.200;16.332;2022-08-01T03:04:07;8.35;;;2.63;;
13879;SDS011;7010;48.200;16.332;2022-08-01T03:06:36;3.08;;;2.88;;
13879;SDS011;7010;48.200;16.332;2022-08-01T03:09:10;2.20;;;2.00;;
13879;SDS011;7010;48.200;16.332;2022-08-01T03:11:42;2.42;;;2.22;;
13879;SDS011;7010;48.200;16.332;2022-08-01T03:14:11;3.17;;;2.72;;
13879;SDS011;7010;48.200;16.332;2022-08-01T03:16:43;2.90;;;2.38;;
13879;SDS011;7010;48.200;16.332;2022-08-01T03:19:13;3.60;;;2.30;;
13879;SDS011;7010;48.200;16.332;2022-08-01T03:21:43;2.70;;;2.50;;
13879;SDS011;7010;48.200;16.332;2022-08-01T03:24:13;2.85;;;2.40;;
13879;SDS011;7010;48.200;16.332;2022-08-01T03:26:43;3.60;;;2.10;;
13879;SDS011;7010;48.200;16.332;2022-08-01T03:29:14;2.55;;;2.33;;
13879;SDS011;7010;48.200;16.332;2022-08-01T03:31:47;2.55;;;2.40;;
13879;SDS011;7010;48.200;16.332;2022-08-01T03:34:16;2.50;;;2.00;;
13879;SDS011;7010;48.200;16.332;2022-08-01T03:36:48;2.67;;;2.47;;
13879;SDS011;7010;48.200;16.332;2022-08-01T03:39:21;2.40;;;2.20;;
13879;SDS011;7010;48.200;16.332;2022-08-01T03:41:58;2.90;;;2.70;;
13879;SDS011;7010;48.200;16.332;2022-08-01T03:44:30;2.95;;;2.70;;
13879;SDS011;7010;48.200;16.332;2022-08-01T03:47:04;2.05;;;1.95;;
13879;SDS011;7010;48.200;16.332;2022-08-01T03:49:35;2.55;;;2.35;;
13879;SDS011;7010;48.200;16.332;2022-08-01T03:52:09;2.67;;;2.15;;
13879;SDS011;7010;48.200;16.332;2022-08-01T03:54:40;2.00;;;1.90;;
13879;SDS011;7010;48.200;16.332;2022-08-01T03:57:13;1.80;;;1.70;;
13879;SDS011;7010;48.200;16.332;2022-08-01T04:00:02;2.03;;;1.92;;
13879;SDS011;7010;48.200;16.332;2022-08-01T04:02:36;2.00;;;1.90;;
13879;SDS011;7010;48.200;16.332;2022-08-01T04:05:05;2.30;;;2.20;;
13879;SDS011;7010;48.200;16.332;2022-08-01T04:07:34;2.33;;;2.20;;
13879;SDS011;7010;48.200;16.332;2022-08-01T04:10:05;2.30;;;2.20;;
13879;SDS011;7010;48.200;16.332;2022-08-01T04:12:34;1.88;;;1.77;;
13879;SDS011;7010;48.200;16.332;2022-08-01T04:15:03;2.67;;;2.08;;
13879;SDS011;7010;48.200;16.332;2022-08-01T04:17:32;2.40;;;2.20;;
13879;SDS011;7010;48.200;16.332;2022-08-01T04:20:02;2.00;;;1.90;;
13879;SDS011;7010;48.200;16.332;2022-08-01T04:22:31;2.63;;;2.42;;
13879;SDS011;7010;48.200;16.332;2022-08-01T04:25:03;3.90;;;3.00;;
13879;SDS011;7010;48.200;16.332;2022-08-01T04:27:36;1.80;;;1.70;;
13879;SDS011;7010;48.200;16.332;2022-08-01T04:30:17;2.88;;;2.58;;
13879;SDS011;7010;48.200;16.332;2022-08-01T04:32:51;2.45;;;2.25;;
13879;SDS011;7010;48.200;16.332;2022-08-01T04:35:23;2.10;;;2.00;;
13879;SDS011;7010;48.200;16.332;2022-08-01T04:38:15;2.50;;;2.30;;
13879;SDS011;7010;48.200;16.332;2022-08-01T04:40:49;1.80;;;1.70;;
13879;SDS011;7010;48.200;16.332;2022-08-01T04:43:19;1.77;;;1.67;;
13879;SDS011;7010;48.200;16.332;2022-08-01T04:45:48;2.55;;;2.10;;
13879;SDS011;7010;48.200;16.332;2022-08-01T04:48:18;2.40;;;2.20;;
13879;SDS011;7010;48.200;16.332;2022-08-01T04:50:49;2.10;;;1.95;;
13879;SDS011;7010;48.200;16.332;2022-08-01T04:53:18;2.53;;;2.33;;
13879;SDS011;7010;48.200;16.332;2022-08-01T04:55:48;3.05;;;2.45;;
13879;SDS011;7010;48.200;16.332;2022-08-01T04:58:17;4.07;;;2.33;;
13879;SDS011;7010;48.200;16.332;2022-08-01T05:00:45;2.88;;;1.95;;
13879;SDS011;7010;48.200;16.332;2022-08-01T05:03:14;2.38;;;2.17;;
13879;SDS011;7010;48.200;16.332;2022-08-01T05:05:43;2.58;;;2.38;;
13879;SDS011;7010;48.200;16.332;2022-08-01T05:08:12;2.40;;;2.20;;
13879;SDS011;7010;48.200;16.332;2022-08-01T05:10:42;2.45;;;2.25;;
13879;SDS011;7010;48.200;16.332;2022-08-01T05:13:11;2.58;;;2.38;;
13879;SDS011;7010;48.200;16.332;2022-08-01T05:15:39;3.20;;;2.25;;
13879;SDS011;7010;48.200;16.332;2022-08-01T05:18:07;4.18;;;2.42;;
13879;SDS011;7010;48.200;16.332;2022-08-01T05:20:36;1.85;;;1.75;;
13879;SDS011;7010;48.200;16.332;2022-08-01T05:23:04;1.52;;;1.45;;
13879;SDS011;7010;48.200;16.332;2022-08-01T05:25:38;2.20;;;2.00;;
13879;SDS011;7010;48.200;16.332;2022-08-01T05:28:23;2.00;;;1.85;;
13879;SDS011;7010;48.200;16.332;2022-08-01T05:30:51;4.88;;;2.17;;
13879;SDS011;7010;48.200;16.332;2022-08-01T05:33:21;5.43;;;2.20;;
13879;SDS011;7010;48.200;16.332;2022-08-01T05:35:49;2.53;;;2.33;;
13879;SDS011;7010;48.200;16.332;2022-08-01T05:38:18;2.28;;;2.10;;
13879;SDS011;7010;48.200;16.332;2022-08-01T05:40:47;2.20;;;2.00;;
13879;SDS011;7010;48.200;16.332;2022-08-01T05:43:16;2.38;;;2.17;;
13879;SDS011;7010;48.200;16.332;2022-08-01T05:45:44;1.80;;;1.70;;
13879;SDS011;7010;48.200;16.332;2022-08-01T05:48:13;1.90;;;1.77;;
13879;SDS011;7010;48.200;16.332;2022-08-01T05:50:41;2.53;;;2.33;;
13879;SDS011;7010;48.200;16.332;2022-08-01T05:53:10;2.33;;;2.13;;
13879;SDS011;7010;48.200;16.332;2022-08-01T05:55:38;3.17;;;2.38;;
13879;SDS011;7010;48.200;16.332;2022-08-01T05:58:08;4.38;;;2.45;;
13879;SDS011;7010;48.200;16.332;2022-08-01T06:00:37;2.40;;;2.20;;
13879;SDS011;7010;48.200;16.332;2022-08-01T06:03:06;19.00;;;2.58;;
13879;SDS011;7010;48.200;16.332;2022-08-01T06:05:34;3.70;;;2.00;;
13879;SDS011;7010;48.200;16.332;2022-08-01T06:08:03;1.67;;;1.58;;
13879;SDS011;7010;48.200;16.332;2022-08-01T06:10:31;2.47;;;2.13;;
13879;SDS011;7010;48.200;16.332;2022-08-01T06:12:59;2.35;;;2.15;;
13879;SDS011;7010;48.200;16.332;2022-08-01T06:15:31;2.63;;;2.38;;
13879;SDS011;7010;48.200;16.332;2022-08-01T06:17:59;1.75;;;1.65;;
13879;SDS011;7010;48.200;16.332;2022-08-01T06:20:28;17.98;;;2.08;;
13879;SDS011;7010;48.200;16.332;2022-08-01T06:22:56;2.38;;;2.17;;
13879;SDS011;7010;48.200;16.332;2022-08-01T06:25:26;2.40;;;2.20;;
13879;SDS011;7010;48.200;16.332;2022-08-01T06:27:57;2.08;;;1.98;;
13879;SDS011;7010;48.200;16.332;2022-08-01T06:30:25;3.30;;;2.35;;
13879;SDS011;7010;48.200;16.332;2022-08-01T06:32:55;10.55;;;2.38;;
13879;SDS011;7010;48.200;16.332;2022-08-01T06:35:25;2.13;;;1.95;;
13879;SDS011;7010;48.200;16.332;2022-08-01T06:37:54;2.40;;;2.22;;
13879;SDS011;7010;48.200;16.332;2022-08-01T06:40:25;2.10;;;1.90;;
13879;SDS011;7010;48.200;16.332;2022-08-01T06:42:53;1.85;;;1.75;;
13879;SDS011;7010;48.200;16.332;2022-08-01T06:45:21;3.80;;;2.35;;
13879;SDS011;7010;48.200;16.332;2022-08-01T06:47:52;1.95;;;1.85;;
13879;SDS011;7010;48.200;16.332;2022-08-01T06:50:21;2.70;;;2.50;;
13879;SDS011;7010;48.200;16.332;2022-08-01T06:52:50;2.22;;;2.08;;
13879;SDS011;7010;48.200;16.332;2022-08-01T06:55:18;4.15;;;2.10;;
13879;SDS011;7010;48.200;16.332;2022-08-01T06:57:47;2.38;;;2.17;;
13879;SDS011;7010;48.200;16.332;2022-08-01T07:00:17;2.50;;;1.95;;
13879;SDS011;7010;48.200;16.332;2022-08-01T07:02:48;2.50;;;2.30;;
13879;SDS011;7010;48.200;16.332;2022-08-01T07:05:17;1.80;;;1.70;;
13879;SDS011;7010;48.200;16.332;2022-08-01T07:07:47;2.35;;;2.15;;
13879;SDS011;7010;48.200;16.332;2022-08-01T07:10:16;7.43;;;2.22;;
13879;SDS011;7010;48.200;16.332;2022-08-01T07:12:45;2.35;;;2.25;;
13879;SDS011;7010;48.200;16.332;2022-08-01T07:15:13;1.92;;;1.77;;
13879;SDS011;7010;48.200;16.332;2022-08-01T07:17:42;2.40;;;2.28;;
13879;SDS011;7010;48.200;16.332;2022-08-01T07:20:11;1.90;;;1.80;;
13879;SDS011;7010;48.200;16.332;2022-08-01T07:22:41;2.92;;;2.20;;
13879;SDS011;7010;48.200;16.332;2022-08-01T07:25:14;3.60;;;1.88;;
13879;SDS011;7010;48.200;16.332;2022-08-01T07:27:43;2.50;;;2.03;;
13879;SDS011;7010;48.200;16.332;2022-08-01T07:30:12;1.70;;;1.60;;
13879;SDS011;7010;48.200;16.332;2022-08-01T07:32:41;2.00;;;1.90;;
13879;SDS011;7010;48.200;16.332;2022-08-01T07:35:09;2.33;;;2.20;;
13879;SDS011;7010;48.200;16.332;2022-08-01T07:37:37;1.88;;;1.77;;
13879;SDS011;7010;48.200;16.332;2022-08-01T07:40:16;1.77;;;1.67;;
13879;SDS011;7010;48.200;16.332;2022-08-01T07:42:45;1.60;;;1.50;;
13879;SDS011;7010;48.200;16.332;2022-08-01T07:45:14;2.13;;;2.03;;
13879;SDS011;7010;48.200;16.332;2022-08-01T07:47:43;2.17;;;2.00;;
13879;SDS011;7010;48.200;16.332;2022-08-01T07:50:14;2.60;;;2.03;;
13879;SDS011;7010;48.200;16.332;2022-08-01T07:52:42;1.73;;;1.63;;
13879;SDS011;7010;48.200;16.332;2022-08-01T07:55:12;1.98;;;1.88;;
13879;SDS011;7010;48.200;16.332;2022-08-01T07:57:43;2.63;;;2.25;;
13879;SDS011;7010;48.200;16.332;2022-08-01T08:00:14;2.10;;;2.00;;
13879;SDS011;7010;48.200;16.332;2022-08-01T08:02:43;2.42;;;2.22;;
13879;SDS011;7010;48.200;16.332;2022-08-01T08:05:12;1.75;;;1.65;;
13879;SDS011;7010;48.200;16.332;2022-08-01T08:08:00;1.98;;;1.88;;
13879;SDS011;7010;48.200;16.332;2022-08-01T08:40:04;2.25;;;2.05;;
13879;SDS011;7010;48.200;16.332;2022-08-01T08:42:33;2.05;;;1.90;;
13879;SDS011;7010;48.200;16.332;2022-08-01T08:45:02;1.63;;;1.52;;
13879;SDS011;7010;48.200;16.332;2022-08-01T08:47:37;1.50;;;1.42;;
13879;SDS011;7010;48.200;16.332;2022-08-01T08:50:07;2.53;;;2.00;;
13879;SDS011;7010;48.200;16.332;2022-08-01T08:52:35;2.35;;;2.15;;
13879;SDS011;7010;48.200;16.332;2022-08-01T08:55:08;1.90;;;1.80;;
13879;SDS011;7010;48.200;16.332;2022-08-01T08:57:40;2.35;;;2.22;;
13879;SDS011;7010;48.200;16.332;2022-08-01T09:00:11;2.92;;;2.67;;
13879;SDS011;7010;48.200;16.332;2022-08-01T09:02:42;2.00;;;1.90;;
13879;SDS011;7010;48.200;16.332;2022-08-01T09:05:13;1.73;;;1.63;;
13879;SDS011;7010;48.200;16.332;2022-08-01T09:07:45;2.92;;;2.20;;
13879;SDS011;7010;48.200;16.332;2022-08-01T09:10:15;2.30;;;2.10;;
13879;SDS011;7010;48.200;16.332;2022-08-01T09:13:06;2.45;;;2.25;;
13879;SDS011;7010;48.200;16.332;2022-08-01T09:15:38;1.90;;;1.80;;
13879;SDS011;7010;48.200;16.332;2022-08-01T09:18:08;1.88;;;1.77;;
13879;SDS011;7010;48.200;16.332;2022-08-01T09:20:36;2.55;;;2.35;;
13879;SDS011;7010;48.200;16.332;2022-08-01T09:23:05;2.50;;;2.30;;
13879;SDS011;7010;48.200;16.332;2022-08-01T09:28:26;2.38;;;2.17;;
13879;SDS011;7010;48.200;16.332;2022-08-01T09:30:55;1.92;;;1.83;;
13879;SDS011;7010;48.200;16.332;2022-08-01T09:33:24;1.83;;;1.73;;
13879;SDS011;7010;48.200;16.332;2022-08-01T09:35:54;4.88;;;2.25;;
13879;SDS011;7010;48.200;16.332;2022-08-01T09:38:24;2.15;;;2.00;;
13879;SDS011;7010;48.200;16.332;2022-08-01T09:40:57;2.08;;;1.98;;
13879;SDS011;7010;48.200;16.332;2022-08-01T09:43:27;2.25;;;2.15;;
13879;SDS011;7010;48.200;16.332;2022-08-01T09:46:04;2.60;;;2.25;;
13879;SDS011;7010;48.200;16.332;2022-08-01T09:48:38;2.40;;;2.20;;
13879;SDS011;7010;48.200;16.332;2022-08-01T09:51:07;2.50;;;2.30;;
13879;SDS011;7010;48.200;16.332;2022-08-01T09:53:56;2.75;;;2.55;;
13879;SDS011;7010;48.200;16.332;2022-08-01T09:56:27;2.30;;;2.10;;
13879;SDS011;7010;48.200;16.332;2022-08-01T09:59:04;2.30;;;2.08;;
13879;SDS011;7010;48.200;16.332;2022-08-01T10:01:43;2.45;;;2.22;;
13879;SDS011;7010;48.200;16.332;2022-08-01T10:04:14;2.10;;;2.00;;
13879;SDS011;7010;48.200;16.332;2022-08-01T10:06:44;2.10;;;2.00;;
13879;SDS011;7010;48.200;16.332;2022-08-01T10:09:17;2.45;;;2.08;;
13879;SDS011;7010;48.200;16.332;2022-08-01T10:12:08;3.08;;;2.33;;
13879;SDS011;7010;48.200;16.332;2022-08-01T10:14:41;2.63;;;2.42;;
13879;SDS011;7010;48.200;16.332;2022-08-01T10:17:12;2.65;;;2.45;;
13879;SDS011;7010;48.200;16.332;2022-08-01T10:19:49;3.00;;;2.70;;
13879;SDS011;7010;48.200;16.332;2022-08-01T10:22:23;2.40;;;2.20;;
13879;SDS011;7010;48.200;16.332;2022-08-01T10:24:54;2.53;;;2.33;;
13879;SDS011;7010;48.200;16.332;2022-08-01T10:27:26;2.17;;;2.08;;
13879;SDS011;7010;48.200;16.332;2022-08-01T10:30:05;2.40;;;2.30;;
13879;SDS011;7010;48.200;16.332;2022-08-01T10:32:47;1.98;;;1.88;;
13879;SDS011;7010;48.200;16.332;2022-08-01T10:35:16;2.30;;;2.20;;
13879;SDS011;7010;48.200;16.332;2022-08-01T10:38:05;2.78;;;2.58;;
13879;SDS011;7010;48.200;16.332;2022-08-01T10:40:39;2.88;;;2.67;;
13879;SDS011;7010;48.200;16.332;2022-08-01T10:43:10;2.63;;;2.42;;
13879;SDS011;7010;48.200;16.332;2022-08-01T10:45:48;2.15;;;2.05;;
13879;SDS011;7010;48.200;16.332;2022-08-01T10:48:18;3.55;;;2.30;;
13879;SDS011;7010;48.200;16.332;2022-08-01T10:50:52;2.03;;;1.92;;
13879;SDS011;7010;48.200;16.332;2022-08-01T10:53:24;2.85;;;1.98;;
13879;SDS011;7010;48.200;16.332;2022-08-01T10:56:07;2.17;;;1.77;;
13879;SDS011;7010;48.200;16.332;2022-08-01T10:58:44;2.45;;;2.25;;
13879;SDS011;7010;48.200;16.332;2022-08-01T11:01:23;2.63;;;2.42;;
13879;SDS011;7010;48.200;16.332;2022-08-01T11:04:06;2.17;;;1.98;;
13879;SDS011;7010;48.200;16.332;2022-08-01T11:06:44;2.58;;;2.28;;
13879;SDS011;7010;48.200;16.332;2022-08-01T11:09:21;2.17;;;2.08;;
13879;SDS011;7010;48.200;16.332;2022-08-01T11:12:06;1.85;;;1.63;;
13879;SDS011;7010;48.200;16.332;2022-08-01T11:17:56;2.15;;;2.00;;
13879;SDS011;7010;48.200;16.332;2022-08-01T11:20:31;2.22;;;2.05;;
13879;SDS011;7010;48.200;16.332;2022-08-01T11:23:18;2.50;;;2.30;;
13879;SDS011;7010;48.200;16.332;2022-08-01T11:28:38;2.40;;;2.03;;
13879;SDS011;7010;48.200;16.332;2022-08-01T11:31:26;2.58;;;2.30;;
13879;SDS011;7010;48.200;16.332;2022-08-01T11:34:03;2.42;;;2.22;;
13879;SDS011;7010;48.200;16.332;2022-08-01T11:36:32;2.40;;;2.20;;
13879;SDS011;7010;48.200;16.332;2022-08-01T11:39:20;2.65;;;2.35;;
13879;SDS011;7010;48.200;16.332;2022-08-01T11:41:49;2.53;;;2.33;;
13879;SDS011;7010;48.200;16.332;2022-08-01T11:44:22;2.63;;;2.38;;
13879;SDS011;7010;48.200;16.332;2022-08-01T11:46:58;7.78;;;2.63;;
13879;SDS011;7010;48.200;16.332;2022-08-01T11:52:26;5.15;;;2.70;;
13879;SDS011;7010;48.200;16.332;2022-08-01T11:55:05;2.50;;;2.30;;
13879;SDS011;7010;48.200;16.332;2022-08-01T11:57:37;2.75;;;2.53;;
13879;SDS011;7010;48.200;16.332;2022-08-01T12:00:09;2.35;;;2.05;;
13879;SDS011;7010;48.200;16.332;2022-08-01T12:02:44;2.85;;;2.55;;
13879;SDS011;7010;48.200;16.332;2022-08-01T12:05:14;9.45;;;2.40;;
13879;SDS011;7010;48.200;16.332;2022-08-01T12:07:51;2.55;;;2.35;;
13879;SDS011;7010;48.200;16.332;2022-08-01T12:10:22;2.35;;;2.15;;
13879;SDS011;7010;48.200;16.332;2022-08-01T12:12:52;2.67;;;2.47;;
13879;SDS011;7010;48.200;16.332;2022-08-01T12:15:22;2.75;;;2.55;;
13879;SDS011;7010;48.200;16.332;2022-08-01T12:17:56;2.45;;;2.35;;
13879;SDS011;7010;48.200;16.332;2022-08-01T12:20:27;2.53;;;2.33;;
13879;SDS011;7010;48.200;16.332;2022-08-01T12:22:59;3.13;;;2.55;;
13879;SDS011;7010;48.200;16.332;2022-08-01T12:25:28;2.53;;;2.42;;
13879;SDS011;7010;48.200;16.332;2022-08-01T12:27:59;3.30;;;2.67;;
13879;SDS011;7010;48.200;16.332;2022-08-01T12:30:28;2.50;;;2.30;;
13879;SDS011;7010;48.200;16.332;2022-08-01T12:33:03;2.03;;;1.92;;
13879;SDS011;7010;48.200;16.332;2022-08-01T12:35:33;2.28;;;2.03;;
13879;SDS011;7010;48.200;16.332;2022-08-01T12:38:03;2.17;;;1.90;;
13879;SDS011;7010;48.200;16.332;2022-08-01T12:40:34;1.65;;;1.27;;
13879;SDS011;7010;48.200;16.332;2022-08-01T12:43:10;1.95;;;1.85;;
13879;SDS011;7010;48.200;16.332;2022-08-01T12:45:54;2.22;;;1.95;;
13879;SDS011;7010;48.200;16.332;2022-08-01T12:48:25;1.80;;;1.70;;
13879;SDS011;7010;48.200;16.332;2022-08-01T12:50:54;2.05;;;1.80;;
13879;SDS011;7010;48.200;16.332;2022-08-01T12:53:27;1.90;;;1.80;;
13879;SDS011;7010;48.200;16.332;2022-08-01T12:56:06;2.05;;;1.90;;
13879;SDS011;7010;48.200;16.332;2022-08-01T12:58:35;1.63;;;1.52;;
13879;SDS011;7010;48.200;16.332;2022-08-01T13:01:04;1.88;;;1.77;;
13879;SDS011;7010;48.200;16.332;2022-08-01T13:03:35;1.63;;;1.52;;
13879;SDS011;7010;48.200;16.332;2022-08-01T13:06:09;1.58;;;1.48;;
13879;SDS011;7010;48.200;16.332;2022-08-01T13:08:39;3.50;;;1.83;;
13879;SDS011;7010;48.200;16.332;2022-08-01T13:11:08;1.70;;;1.60;;
13879;SDS011;7010;48.200;16.332;2022-08-01T13:13:41;1.80;;;1.70;;
13879;SDS011;7010;48.200;16.332;2022-08-01T13:16:11;2.83;;;2.50;;
13879;SDS011;7010;48.200;16.332;2022-08-01T13:18:53;2.42;;;2.28;;
13879;SDS011;7010;48.200;16.332;2022-08-01T13:21:23;2.75;;;2.33;;
13879;SDS011;7010;48.200;16.332;2022-08-01T13:24:02;2.65;;;2.45;;
13879;SDS011;7010;48.200;16.332;2022-08-01T13:26:43;2.92;;;2.72;;
13879;SDS011;7010;48.200;16.332;2022-08-01T13:29:14;1.95;;;1.85;;
13879;SDS011;7010;48.200;16.332;2022-08-01T13:31:43;2.20;;;2.10;;
13879;SDS011;7010;48.200;16.332;2022-08-01T13:34:15;2.10;;;2.00;;
13879;SDS011;7010;48.200;16.332;2022-08-01T13:36:43;2.38;;;1.95;;
13879;SDS011;7010;48.200;16.332;2022-08-01T13:39:15;2.20;;;2.00;;
13879;SDS011;7010;48.200;16.332;2022-08-01T13:42:01;1.70;;;1.60;;
13879;SDS011;7010;48.200;16.332;2022-08-01T13:44:29;2.10;;;2.00;;
13879;SDS011;7010;48.200;16.332;2022-08-01T13:46:58;2.10;;;1.90;;
13879;SDS011;7010;48.200;16.332;2022-08-01T13:49:41;1.30;;;1.27;;
13879;SDS011;7010;48.200;16.332;2022-08-01T13:52:10;1.70;;;1.60;;
13879;SDS011;7010;48.200;16.332;2022-08-01T13:54:38;1.00;;;1.00;;
13879;SDS011;7010;48.200;16.332;2022-08-01T13:57:07;1.30;;;1.30;;
13879;SDS011;7010;48.200;16.332;2022-08-01T13:59:35;1.17;;;1.17;;
13879;SDS011;7010;48.200;16.332;2022-08-01T14:02:03;1.65;;;1.55;;
13879;SDS011;7010;48.200;16.332;2022-08-01T14:04:35;1.50;;;1.40;;
13879;SDS011;7010;48.200;16.332;2022-08-01T14:07:05;1.13;;;1.13;;
13879;SDS011;7010;48.200;16.332;2022-08-01T14:09:39;1.65;;;1.55;;
13879;SDS011;7010;48.200;16.332;2022-08-01T14:12:23;1.52;;;1.42;;
13879;SDS011;7010;48.200;16.332;2022-08-01T14:14:51;1.33;;;1.27;;
13879;SDS011;7010;48.200;16.332;2022-08-01T14:17:19;1.58;;;1.48;;
13879;SDS011;7010;48.200;16.332;2022-08-01T14:19:48;1.48;;;1.38;;
13879;SDS011;7010;48.200;16.332;2022-08-01T14:22:17;1.75;;;1.65;;
13879;SDS011;7010;48.200;16.332;2022-08-01T14:24:46;1.42;;;1.33;;
13879;SDS011;7010;48.200;16.332;2022-08-01T14:27:15;3.65;;;1.50;;
13879;SDS011;7010;48.200;16.332;2022-08-01T14:29:43;1.15;;;1.13;;
13879;SDS011;7010;48.200;16.332;2022-08-01T14:32:29;1.25;;;1.17;;
13879;SDS011;7010;48.200;16.332;2022-08-01T14:34:59;1.40;;;1.30;;
13879;SDS011;7010;48.200;16.332;2022-08-01T14:37:29;1.55;;;1.42;;
13879;SDS011;7010;48.200;16.332;2022-08-01T14:40:04;1.77;;;1.67;;
13879;SDS011;7010;48.200;16.332;2022-08-01T14:42:36;1.63;;;1.52;;
13879;SDS011;7010;48.200;16.332;2022-08-01T14:45:05;1.20;;;1.20;;
13879;SDS011;7010;48.200;16.332;2022-08-01T14:47:36;1.45;;;1.42;;
13879;SDS011;7010;48.200;16.332;2022-08-01T14:50:05;1.48;;;1.38;;
13879;SDS011;7010;48.200;16.332;2022-08-01T14:52:40;2.58;;;1.75;;
13879;SDS011;7010;48.200;16.332;2022-08-01T14:55:09;1.80;;;1.70;;
13879;SDS011;7010;48.200;16.332;2022-08-01T14:57:39;1.42;;;1.33;;
13879;SDS011;7010;48.200;16.332;2022-08-01T15:00:08;1.55;;;1.45;;
13879;SDS011;7010;48.200;16.332;2022-08-01T15:02:38;1.95;;;1.60;;
13879;SDS011;7010;48.200;16.332;2022-08-01T15:05:08;1.60;;;1.50;;
13879;SDS011;7010;48.200;16.332;2022-08-01T15:07:36;1.83;;;1.73;;
13879;SDS011;7010;48.200;16.332;2022-08-01T15:10:20;1.50;;;1.40;;
13879;SDS011;7010;48.200;16.332;2022-08-01T15:12:49;1.50;;;1.40;;
13879;SDS011;7010;48.200;16.332;2022-08-01T15:15:17;1.55;;;1.45;;
13879;SDS011;7010;48.200;16.332;2022-08-01T15:17:47;1.90;;;1.80;;
13879;SDS011;7010;48.200;16.332;2022-08-01T15:20:15;1.60;;;1.50;;
13879;SDS011;7010;48.200;16.332;2022-08-01T15:22:43;1.77;;;1.67;;
13879;SDS011;7010;48.200;16.332;2022-08-01T15:25:12;2.63;;;1.98;;
13879;SDS011;7010;48.200;16.332;2022-08-01T15:27:42;1.80;;;1.70;;
13879;SDS011;7010;48.200;16.332;2022-08-01T15:30:10;1.55;;;1.45;;
13879;SDS011;7010;48.200;16.332;2022-08-01T15:32:39;1.85;;;1.67;;
13879;SDS011;7010;48.200;16.332;2022-08-01T15:35:07;3.15;;;1.67;;
13879;SDS011;7010;48.200;16.332;2022-08-01T15:37:37;1.88;;;1.65;;
13879;SDS011;7010;48.200;16.332;2022-08-01T15:40:08;4.22;;;1.90;;
13879;SDS011;7010;48.200;16.332;2022-08-01T15:42:37;1.50;;;1.40;;
13879;SDS011;7010;48.200;16.332;2022-08-01T15:45:08;2.08;;;1.88;;
13879;SDS011;7010;48.200;16.332;2022-08-01T15:47:58;2.25;;;2.05;;
13879;SDS011;7010;48.200;16.332;2022-08-01T15:50:27;2.10;;;1.90;;
13879;SDS011;7010;48.200;16.332;2022-08-01T15:52:55;1.83;;;1.55;;
13879;SDS011;7010;48.200;16.332;2022-08-01T15:55:23;2.10;;;1.90;;
13879;SDS011;7010;48.200;16.332;2022-08-01T15:57:51;2.78;;;2.13;;